createdAt,value
2023-04-18T00:00:12.549Z,1.50
2023-04-18T00:03:01.628Z,1.50
2023-04-18T00:05:31.492Z,1.73
2023-04-18T00:07:58.546Z,1.88
2023-04-18T00:10:25.913Z,1.90
2023-04-18T00:12:52.934Z,1.70
2023-04-18T00:15:20.383Z,2.63
2023-04-18T00:17:48.387Z,2.08
2023-04-18T00:20:16.159Z,2.80
2023-04-18T00:22:44.022Z,2.55
2023-04-18T00:25:11.841Z,1.92
2023-04-18T00:27:39.470Z,2.03
2023-04-18T00:30:08.520Z,1.52
2023-04-18T00:32:35.896Z,1.65
2023-04-18T00:35:04.497Z,1.85
2023-04-18T00:37:31.905Z,1.67
2023-04-18T00:39:59.500Z,3.13
2023-04-18T00:42:28.984Z,1.98
2023-04-18T00:44:56.328Z,1.60
2023-04-18T00:47:23.479Z,1.60
2023-04-18T00:49:50.844Z,1.95
2023-04-18T00:52:18.916Z,1.90
2023-04-18T00:54:47.487Z,2.20
2023-04-18T00:57:15.204Z,1.65
2023-04-18T00:59:42.787Z,2.05
2023-04-18T01:02:09.961Z,2.17
2023-04-18T01:04:37.448Z,2.13
2023-04-18T01:07:04.984Z,1.98
2023-04-18T01:09:32.397Z,2.63
2023-04-18T01:11:59.374Z,2.05
2023-04-18T01:14:26.814Z,1.58
2023-04-18T01:16:53.874Z,2.22
2023-04-18T01:19:21.627Z,1.95
2023-04-18T01:21:48.740Z,2.03
2023-04-18T01:24:17.784Z,2.78
2023-04-18T01:26:47.709Z,1.95
2023-04-18T01:29:15.439Z,2.20
2023-04-18T01:31:42.633Z,1.20
2023-04-18T01:34:10.248Z,2.40
2023-04-18T01:36:39.130Z,1.50
2023-04-18T01:41:34.326Z,1.80
2023-04-18T01:44:02.105Z,1.67
2023-04-18T01:46:29.229Z,2.70
2023-04-18T01:48:57.643Z,1.88
2023-04-18T01:55:08.369Z,1.98
2023-04-18T01:57:36.958Z,2.25
2023-04-18T02:00:06.374Z,2.17
2023-04-18T02:02:34.101Z,2.40
2023-04-18T02:05:01.500Z,2.13
2023-04-18T02:07:29.013Z,1.95
2023-04-18T02:09:56.126Z,2.00
2023-04-18T02:12:23.560Z,2.03
2023-04-18T02:14:54.221Z,2.20
2023-04-18T02:17:23.733Z,2.35
2023-04-18T02:19:51.634Z,2.13
2023-04-18T02:22:19.184Z,2.92
2023-04-18T02:24:46.524Z,2.22
2023-04-18T02:27:14.167Z,2.30
2023-04-18T02:29:41.307Z,2.25
2023-04-18T02:32:09.274Z,1.45
2023-04-18T02:34:38.375Z,0.82
2023-04-18T02:37:05.881Z,2.40
2023-04-18T02:39:32.914Z,1.83
2023-04-18T02:42:01.783Z,2.15
2023-04-18T02:44:28.819Z,2.03
2023-04-18T02:46:56.489Z,2.53
2023-04-18T02:49:23.636Z,2.35
2023-04-18T02:51:55.899Z,2.60
2023-04-18T02:54:23.312Z,2.17
2023-04-18T02:56:53.937Z,2.72
2023-04-18T02:59:21.013Z,2.88
2023-04-18T03:01:48.473Z,3.03
2023-04-18T03:04:16.125Z,2.40
2023-04-18T03:06:43.668Z,2.55
2023-04-18T03:09:10.877Z,2.80
2023-04-18T03:11:39.243Z,3.13
2023-04-18T03:14:06.694Z,4.25
2023-04-18T03:16:34.597Z,4.38
2023-04-18T03:19:01.688Z,4.68
2023-04-18T03:21:29.054Z,3.75
2023-04-18T03:23:56.473Z,3.65
2023-04-18T03:26:24.422Z,3.88
2023-04-18T03:28:51.632Z,3.72
2023-04-18T03:31:19.153Z,2.95
2023-04-18T03:33:47.124Z,2.30
2023-04-18T03:36:18.024Z,2.95
2023-04-18T03:38:45.386Z,2.53
2023-04-18T03:41:13.268Z,2.90
2023-04-18T03:43:40.454Z,2.60
2023-04-18T03:46:07.998Z,2.55
2023-04-18T03:48:37.935Z,2.20
2023-04-18T03:51:06.233Z,2.72
2023-04-18T03:53:33.565Z,1.83
2023-04-18T03:56:00.890Z,2.25
2023-04-18T03:58:29.261Z,2.55
2023-04-18T04:00:56.699Z,2.45
2023-04-18T04:03:25.276Z,2.00
2023-04-18T04:08:23.244Z,3.03
2023-04-18T04:10:57.992Z,2.45
2023-04-18T04:13:25.647Z,3.08
2023-04-18T04:15:55.111Z,3.30
2023-04-18T04:18:31.063Z,2.42
2023-04-18T04:20:59.367Z,3.83
2023-04-18T04:23:26.970Z,1.27
2023-04-18T04:25:54.762Z,2.25
2023-04-18T04:28:24.006Z,3.17
2023-04-18T04:30:52.198Z,1.70
2023-04-18T04:36:20.929Z,1.83
2023-04-18T04:38:50.689Z,1.92
2023-04-18T04:41:17.802Z,2.00
2023-04-18T04:49:35.937Z,3.20
2023-04-18T04:52:03.125Z,3.42
2023-04-18T04:54:51.629Z,2.92
2023-04-18T04:57:18.844Z,2.33
2023-04-18T04:59:46.250Z,2.70
2023-04-18T05:02:15.036Z,3.28
2023-04-18T05:04:42.816Z,3.28
2023-04-18T05:07:10.175Z,3.88
2023-04-18T05:12:29.488Z,2.53
2023-04-18T05:15:07.664Z,3.63
2023-04-18T05:18:22.764Z,3.40
2023-04-18T05:20:52.329Z,3.42
2023-04-18T05:23:20.963Z,3.42
2023-04-18T05:25:48.836Z,3.20
2023-04-18T05:28:20.029Z,3.50
2023-04-18T05:31:03.987Z,6.05
2023-04-18T05:33:36.362Z,4.50
2023-04-18T05:36:13.035Z,6.80
2023-04-18T05:38:45.782Z,5.90
2023-04-18T05:41:13.536Z,1.80
2023-04-18T05:43:40.956Z,2.42
2023-04-18T05:46:09.716Z,2.63
2023-04-18T05:48:41.606Z,2.53
2023-04-18T05:51:11.598Z,3.42
2023-04-18T05:53:38.777Z,4.30
2023-04-18T05:56:06.956Z,6.30
2023-04-18T05:58:37.251Z,5.55
2023-04-18T06:01:14.312Z,4.53
2023-04-18T06:03:44.760Z,3.65
2023-04-18T06:06:13.175Z,3.97
2023-04-18T06:08:40.452Z,3.00
2023-04-18T06:11:09.274Z,2.92
2023-04-18T06:13:37.402Z,1.85
2023-04-18T06:16:05.557Z,1.60
2023-04-18T06:18:34.694Z,1.05
2023-04-18T06:21:02.172Z,1.90
2023-04-18T06:23:29.271Z,1.92
2023-04-18T06:25:57.381Z,2.28
2023-04-18T06:28:24.924Z,1.58
2023-04-18T06:30:52.413Z,1.35
2023-04-18T06:33:19.812Z,1.05
2023-04-18T06:35:47.279Z,1.42
2023-04-18T06:38:14.636Z,1.85
2023-04-18T06:40:42.251Z,2.83
2023-04-18T06:43:09.274Z,1.38
2023-04-18T06:45:36.856Z,1.67
2023-04-18T06:48:04.455Z,2.40
2023-04-18T06:50:34.270Z,2.63
2023-04-18T06:53:06.419Z,2.10
2023-04-18T06:55:39.462Z,1.55
2023-04-18T06:58:08.608Z,2.05
2023-04-18T07:00:36.128Z,2.10
2023-04-18T07:03:11.593Z,1.80
2023-04-18T07:05:53.757Z,1.50
2023-04-18T07:08:24.772Z,1.73
2023-04-18T07:13:19.405Z,3.00
2023-04-18T07:15:47.030Z,1.42
2023-04-18T07:18:20.576Z,2.38
2023-04-18T07:20:55.562Z,2.47
2023-04-18T07:23:23.291Z,1.63
2023-04-18T07:25:52.884Z,1.75
2023-04-18T07:28:21.517Z,2.17
2023-04-18T07:30:51.895Z,2.92
2023-04-18T07:33:24.430Z,2.65
2023-04-18T07:36:05.634Z,2.90
2023-04-18T07:38:35.406Z,1.95
2023-04-18T07:41:03.600Z,1.77
2023-04-18T07:43:31.377Z,3.10
2023-04-18T07:46:01.381Z,1.95
2023-04-18T07:48:31.062Z,2.10
2023-04-18T07:51:03.828Z,1.75
2023-04-18T07:53:33.406Z,1.45
2023-04-18T07:56:00.757Z,2.72
2023-04-18T07:58:28.598Z,2.38
2023-04-18T08:00:56.617Z,3.50
2023-04-18T08:06:21.703Z,2.35
2023-04-18T08:08:49.257Z,2.78
2023-04-18T08:11:16.630Z,2.72
2023-04-18T08:13:44.374Z,2.80
2023-04-18T08:16:11.516Z,2.70
2023-04-18T08:18:38.995Z,2.35
2023-04-18T08:21:13.631Z,3.15
2023-04-18T08:23:41.977Z,2.60
2023-04-18T08:26:09.255Z,2.58
2023-04-18T08:28:46.746Z,2.70
2023-04-18T08:31:17.236Z,2.28
2023-04-18T08:33:44.723Z,1.90
2023-04-18T08:36:16.837Z,1.73
2023-04-18T08:38:46.866Z,2.88
2023-04-18T08:41:16.402Z,2.70
2023-04-18T08:43:48.349Z,2.55
2023-04-18T08:46:15.566Z,3.45
2023-04-18T08:48:43.318Z,2.97
2023-04-18T08:51:10.390Z,2.75
2023-04-18T08:53:39.468Z,2.58
2023-04-18T08:58:39.004Z,3.33
2023-04-18T09:01:07.430Z,3.05
2023-04-18T09:06:15.196Z,2.95
2023-04-18T09:09:03.600Z,2.20
2023-04-18T09:17:32.973Z,3.65
2023-04-18T09:20:01.524Z,3.33
2023-04-18T09:22:54.797Z,3.17
2023-04-18T09:25:43.211Z,3.45
2023-04-18T09:28:30.098Z,3.88
2023-04-18T09:31:12.199Z,3.42
2023-04-18T09:33:44.054Z,4.40
2023-04-18T09:36:39.516Z,3.53
2023-04-18T09:39:07.453Z,4.18
2023-04-18T09:41:37.083Z,4.60
2023-04-18T09:44:15.115Z,4.88
2023-04-18T09:46:46.573Z,4.30
2023-04-18T09:49:15.507Z,3.75
2023-04-18T09:51:45.000Z,3.13
2023-04-18T09:54:16.460Z,2.72
2023-04-18T09:56:45.313Z,3.03
2023-04-18T09:59:17.738Z,3.65
2023-04-18T10:01:48.533Z,2.83
2023-04-18T10:04:20.883Z,1.92
2023-04-18T10:06:54.977Z,3.53
2023-04-18T10:09:24.311Z,3.35
2023-04-18T10:11:54.682Z,3.85
2023-04-18T10:14:23.098Z,3.88
2023-04-18T10:17:02.742Z,3.67
2023-04-18T10:19:30.264Z,2.53
2023-04-18T10:21:59.629Z,4.43
2023-04-18T10:24:47.995Z,3.05
2023-04-18T10:27:19.050Z,1.95
2023-04-18T10:29:52.551Z,3.40
2023-04-18T10:33:10.583Z,1.67
2023-04-18T10:36:07.148Z,2.78
2023-04-18T10:38:35.487Z,3.15
2023-04-18T10:41:29.702Z,2.38
2023-04-18T10:44:19.721Z,4.35
2023-04-18T10:47:24.569Z,3.65
2023-04-18T10:49:57.052Z,3.65
2023-04-18T10:52:24.269Z,3.53
2023-04-18T10:55:01.611Z,3.35
2023-04-18T10:57:56.735Z,2.85
2023-04-18T11:00:24.905Z,2.47
2023-04-18T11:02:56.972Z,3.15
2023-04-18T11:05:29.011Z,5.03
2023-04-18T11:07:58.862Z,3.55
2023-04-18T11:10:27.143Z,3.88
2023-04-18T11:13:04.557Z,3.30
2023-04-18T11:15:32.288Z,2.70
2023-04-18T11:18:04.609Z,3.28
2023-04-18T11:20:41.036Z,3.80
2023-04-18T11:23:20.297Z,3.20
2023-04-18T11:25:51.595Z,3.60
2023-04-18T11:28:25.056Z,3.35
2023-04-18T11:30:59.109Z,3.15
2023-04-18T11:33:52.361Z,2.40
2023-04-18T11:36:19.817Z,2.33
2023-04-18T11:38:47.695Z,2.05
2023-04-18T11:41:26.371Z,2.85
2023-04-18T11:43:54.478Z,3.03
2023-04-18T11:46:23.980Z,3.28
2023-04-18T11:48:51.298Z,2.22
2023-04-18T11:51:35.712Z,2.67
2023-04-18T11:54:04.655Z,2.20
2023-04-18T11:56:36.068Z,2.33
2023-04-18T11:59:10.089Z,2.55
2023-04-18T12:01:40.133Z,2.08
2023-04-18T12:04:09.135Z,2.60
2023-04-18T12:06:47.963Z,3.08
2023-04-18T12:09:16.221Z,2.75
2023-04-18T12:11:44.404Z,3.45
2023-04-18T12:14:22.235Z,2.28
2023-04-18T12:16:50.459Z,3.13
2023-04-18T12:19:26.267Z,4.10
2023-04-18T12:22:05.826Z,4.60
2023-04-18T12:24:33.308Z,3.80
2023-04-18T12:27:04.193Z,2.75
2023-04-18T12:32:17.196Z,3.58
2023-04-18T12:34:45.874Z,3.00
2023-04-18T12:37:13.582Z,3.25
2023-04-18T12:42:22.243Z,2.95
2023-04-18T12:44:49.400Z,3.35
2023-04-18T12:47:17.190Z,3.55
2023-04-18T12:49:46.840Z,3.53
2023-04-18T12:52:17.215Z,2.28
2023-04-18T12:54:45.491Z,3.38
2023-04-18T12:57:13.361Z,3.25
2023-04-18T12:59:42.767Z,2.90
2023-04-18T13:02:11.593Z,1.60
2023-04-18T13:04:39.196Z,1.50
2023-04-18T13:07:06.876Z,3.08
2023-04-18T13:09:34.432Z,3.72
2023-04-18T13:12:21.963Z,2.15
2023-04-18T13:14:49.007Z,3.42
2023-04-18T13:17:16.450Z,3.47
2023-04-18T13:19:43.561Z,2.30
2023-04-18T13:22:11.085Z,2.03
2023-04-18T13:24:38.376Z,1.77
2023-04-18T13:27:10.535Z,3.05
2023-04-18T13:29:40.254Z,4.22
2023-04-18T13:32:08.901Z,5.05
2023-04-18T13:34:40.110Z,4.13
2023-04-18T13:37:07.503Z,4.10
2023-04-18T13:39:37.695Z,4.03
2023-04-18T13:42:05.438Z,4.22
2023-04-18T13:44:34.977Z,3.90
2023-04-18T13:47:04.122Z,3.00
2023-04-18T13:52:01.158Z,4.57
2023-04-18T13:54:30.079Z,3.78
2023-04-18T13:56:59.936Z,3.40
2023-04-18T13:59:27.252Z,3.80
2023-04-18T14:04:24.776Z,4.72
2023-04-18T14:07:01.545Z,3.60
2023-04-18T14:09:29.037Z,3.28
2023-04-18T14:12:00.009Z,3.72
2023-04-18T14:14:27.236Z,3.70
2023-04-18T14:16:54.783Z,3.40
2023-04-18T14:19:21.934Z,3.60
2023-04-18T14:21:49.668Z,3.20
2023-04-18T14:24:17.140Z,3.53
2023-04-18T14:27:02.187Z,3.53
2023-04-18T14:29:30.407Z,3.58
2023-04-18T14:31:57.828Z,3.85
2023-04-18T14:34:27.832Z,4.28
2023-04-18T14:36:55.271Z,3.05
2023-04-18T14:39:22.710Z,3.47
2023-04-18T14:41:50.264Z,3.78
2023-04-18T14:44:17.461Z,3.80
2023-04-18T14:46:47.525Z,3.08
2023-04-18T14:49:18.793Z,3.65
2023-04-18T14:51:48.898Z,3.72
2023-04-18T14:54:18.339Z,3.47
2023-04-18T14:56:46.362Z,3.60
2023-04-18T14:59:17.482Z,3.38
2023-04-18T15:01:57.239Z,4.00
2023-04-18T15:04:24.484Z,3.65
2023-04-18T15:06:53.351Z,3.15
2023-04-18T15:09:23.075Z,3.13
2023-04-18T15:11:51.793Z,3.40
2023-04-18T15:14:19.842Z,3.40
2023-04-18T15:16:52.633Z,3.08
2023-04-18T15:19:20.770Z,3.30
2023-04-18T15:21:48.308Z,3.35
2023-04-18T15:24:16.288Z,2.78
2023-04-18T15:26:46.593Z,3.00
2023-04-18T15:29:13.637Z,3.63
2023-04-18T15:31:44.970Z,4.03
2023-04-18T15:34:17.360Z,4.18
2023-04-18T15:42:16.463Z,3.70
2023-04-18T15:44:46.090Z,3.80
2023-04-18T15:50:05.172Z,4.40
2023-04-18T15:55:15.179Z,3.60
2023-04-18T15:58:01.155Z,2.80
2023-04-18T16:00:42.749Z,5.10
2023-04-18T16:05:43.819Z,3.78
2023-04-18T16:08:14.853Z,4.13
2023-04-18T16:10:48.206Z,4.25
2023-04-18T16:13:15.869Z,3.85
2023-04-18T16:15:46.067Z,5.85
2023-04-18T16:18:13.667Z,4.32
2023-04-18T16:20:41.996Z,5.47
2023-04-18T16:23:16.527Z,4.80
2023-04-18T16:25:44.983Z,4.65
2023-04-18T16:28:12.752Z,3.83
2023-04-18T16:33:26.242Z,5.65
2023-04-18T16:35:53.629Z,5.22
2023-04-18T16:38:25.634Z,4.28
2023-04-18T16:41:01.761Z,5.35
2023-04-18T16:43:31.877Z,6.30
2023-04-18T16:49:26.648Z,4.32
2023-04-18T16:54:24.963Z,5.43
2023-04-18T16:56:52.092Z,5.25
2023-04-18T16:59:20.095Z,5.32
2023-04-18T17:01:47.721Z,4.60
2023-04-18T17:04:16.027Z,5.80
2023-04-18T17:07:19.368Z,5.10
2023-04-18T17:10:00.394Z,6.35
2023-04-18T17:12:31.411Z,4.32
2023-04-18T17:14:58.752Z,6.32
2023-04-18T17:17:28.912Z,5.78
2023-04-18T17:20:11.654Z,7.05
2023-04-18T17:22:42.068Z,5.70
2023-04-18T17:25:09.519Z,7.40
2023-04-18T17:27:38.901Z,6.50
2023-04-18T17:30:07.091Z,6.50
2023-04-18T17:32:35.291Z,7.20
2023-04-18T17:35:06.078Z,6.28
2023-04-18T17:37:33.990Z,6.63
2023-04-18T17:40:03.806Z,6.55
2023-04-18T17:42:31.366Z,5.90
2023-04-18T17:47:52.013Z,5.28
2023-04-18T17:50:19.354Z,5.72
2023-04-18T17:52:46.930Z,5.75
2023-04-18T17:55:14.233Z,4.95
2023-04-18T17:57:42.039Z,6.60
2023-04-18T18:00:15.142Z,6.38
2023-04-18T18:03:08.090Z,5.28
2023-04-18T18:05:35.742Z,5.90
2023-04-18T18:08:02.876Z,5.93
2023-04-18T18:10:31.139Z,5.80
2023-04-18T18:13:00.733Z,5.32
2023-04-18T18:15:28.738Z,6.57
2023-04-18T18:17:58.039Z,6.53
2023-04-18T18:23:12.093Z,5.72
2023-04-18T18:25:44.310Z,4.72
2023-04-18T18:28:22.363Z,6.30
2023-04-18T18:30:51.486Z,4.93
2023-04-18T18:36:48.593Z,5.63
2023-04-18T18:45:15.406Z,5.63
2023-04-18T18:47:56.478Z,6.15
2023-04-18T18:50:38.078Z,5.90
2023-04-18T18:53:11.741Z,6.00
2023-04-18T18:55:42.411Z,5.43
2023-04-18T18:58:36.387Z,5.18
2023-04-18T19:01:06.917Z,6.78
2023-04-18T19:03:35.415Z,5.78
2023-04-18T19:06:04.425Z,5.85
2023-04-18T19:08:34.940Z,6.00
2023-04-18T19:16:55.932Z,6.50
2023-04-18T19:19:24.222Z,5.70
2023-04-18T19:21:52.451Z,5.20
2023-04-18T19:24:19.830Z,5.00
2023-04-18T19:26:47.372Z,5.70
2023-04-18T19:29:14.911Z,5.85
2023-04-18T19:31:43.811Z,6.30
2023-04-18T19:34:12.040Z,6.35
2023-04-18T19:36:39.727Z,5.57
2023-04-18T19:39:06.891Z,5.30
2023-04-18T19:41:34.467Z,5.57
2023-04-18T19:44:01.534Z,5.35
2023-04-18T19:46:29.059Z,5.28
2023-04-18T19:48:56.248Z,5.40
2023-04-18T19:51:23.582Z,5.38
2023-04-18T19:53:50.713Z,3.22
2023-04-18T19:56:18.219Z,5.53
2023-04-18T19:58:46.226Z,4.85
2023-04-18T20:01:16.449Z,5.55
2023-04-18T20:03:43.910Z,5.30
2023-04-18T20:06:11.627Z,3.50
2023-04-18T20:08:43.429Z,4.82
2023-04-18T20:11:14.463Z,4.53
2023-04-18T20:13:41.892Z,4.65
2023-04-18T20:16:11.083Z,4.25
2023-04-18T20:21:08.757Z,3.75
2023-04-18T20:23:37.609Z,3.63
2023-04-18T20:26:06.714Z,3.88
2023-04-18T20:28:33.943Z,4.28
2023-04-18T20:31:01.684Z,4.55
2023-04-18T20:33:29.385Z,3.58
2023-04-18T20:35:58.840Z,4.60
2023-04-18T20:38:29.785Z,4.55
2023-04-18T20:41:00.853Z,3.97
2023-04-18T20:43:28.413Z,3.90
2023-04-18T20:45:57.960Z,3.92
2023-04-18T20:48:26.518Z,4.50
2023-04-18T20:50:54.277Z,4.57
2023-04-18T20:53:22.587Z,4.53
2023-04-18T20:55:51.173Z,4.05
2023-04-18T20:58:18.564Z,4.10
2023-04-18T21:00:46.497Z,4.60
2023-04-18T21:03:14.944Z,3.88
2023-04-18T21:05:45.561Z,4.30
2023-04-18T21:08:12.764Z,4.43
2023-04-18T21:10:40.469Z,4.47
2023-04-18T21:13:07.715Z,4.28
2023-04-18T21:15:38.897Z,5.15
2023-04-18T21:18:13.546Z,4.18
2023-04-18T21:20:40.885Z,3.83
2023-04-18T21:23:14.405Z,3.90
2023-04-18T21:25:42.048Z,3.47
2023-04-18T21:28:09.176Z,4.60
2023-04-18T21:30:36.665Z,3.90
2023-04-18T21:33:03.886Z,4.20
2023-04-18T21:35:33.147Z,4.35
2023-04-18T21:38:00.136Z,3.45
2023-04-18T21:40:30.709Z,4.57
2023-04-18T21:42:57.763Z,4.05
2023-04-18T21:45:26.021Z,3.78
2023-04-18T21:47:53.157Z,3.97
2023-04-18T21:50:20.894Z,3.70
2023-04-18T21:52:47.904Z,2.15
2023-04-18T21:55:15.555Z,3.90
2023-04-18T21:57:42.811Z,4.82
2023-04-18T22:00:11.300Z,4.03
2023-04-18T22:02:38.673Z,4.18
2023-04-18T22:05:18.492Z,4.05
2023-04-18T22:07:56.748Z,3.40
2023-04-18T22:10:25.993Z,3.80
2023-04-18T22:12:56.126Z,4.07
2023-04-18T22:15:24.376Z,2.97
2023-04-18T22:17:51.387Z,3.90
2023-04-18T22:20:18.874Z,3.63
2023-04-18T22:22:46.303Z,4.07
2023-04-18T22:25:13.846Z,4.07
2023-04-18T22:27:40.927Z,4.47
2023-04-18T22:30:08.905Z,4.03
2023-04-18T22:32:36.007Z,3.47
2023-04-18T22:35:04.253Z,4.38
2023-04-18T22:37:31.346Z,3.90
2023-04-18T22:39:58.665Z,3.80
2023-04-18T22:42:25.853Z,4.00
2023-04-18T22:44:53.193Z,4.47
2023-04-18T22:47:20.191Z,4.18
2023-04-18T22:49:47.505Z,4.13
2023-04-18T22:52:15.655Z,4.40
2023-04-18T22:54:42.946Z,3.65
2023-04-18T22:57:09.955Z,3.95
2023-04-18T22:59:37.444Z,4.38
2023-04-18T23:02:04.623Z,4.50
2023-04-18T23:04:32.867Z,4.57
2023-04-18T23:07:00.118Z,4.75
2023-04-18T23:09:28.175Z,5.20
2023-04-18T23:11:55.683Z,4.70
2023-04-18T23:14:23.001Z,4.18
2023-04-18T23:16:49.997Z,4.55
2023-04-18T23:19:17.361Z,4.32
2023-04-18T23:21:44.493Z,4.45
2023-04-18T23:24:12.413Z,4.68
2023-04-18T23:26:41.088Z,4.57
2023-04-18T23:29:08.360Z,4.93
2023-04-18T23:31:35.545Z,4.88
2023-04-18T23:34:03.060Z,4.50
2023-04-18T23:36:30.053Z,4.60
2023-04-18T23:38:57.386Z,4.45
2023-04-18T23:41:24.406Z,4.30
2023-04-18T23:43:51.911Z,4.68
2023-04-18T23:46:19.056Z,5.07
2023-04-18T23:48:46.420Z,4.78
2023-04-18T23:51:13.553Z,4.07
2023-04-18T23:53:41.020Z,3.60
2023-04-18T23:56:08.616Z,5.50
2023-04-18T23:58:36.074Z,4.60
